sensor_id;sensor_type;location;lat;lon;timestamp;P1;durP1;ratioP1;P2;durP2;ratioP2
51814;SDS011;37874;53.158;6.766;2023-05-10T01:27:01;2.15;;;0.60;;
51814;SDS011;37874;53.158;6.766;2023-05-10T01:29:50;0.90;;;0.50;;
51814;SDS011;37874;53.158;6.766;2023-05-10T01:35:17;0.80;;;0.50;;
51814;SDS011;37874;53.158;6.766;2023-05-10T01:37:52;0.85;;;0.40;;
51814;SDS011;37874;53.158;6.766;2023-05-10T01:40:35;1.77;;;0.43;;
51814;SDS011;37874;53.158;6.766;2023-05-10T01:43:07;1.38;;;0.60;;
51814;SDS011;37874;53.158;6.766;2023-05-10T01:50:45;0.85;;;0.47;;
51814;SDS011;37874;53.158;6.766;2023-05-10T01:53:13;1.38;;;0.43;;
51814;SDS011;37874;53.158;6.766;2023-05-10T01:55:45;0.75;;;0.40;;
51814;SDS011;37874;53.158;6.766;2023-05-10T01:58:14;0.57;;;0.30;;
51814;SDS011;37874;53.158;6.766;2023-05-10T02:00:52;1.27;;;0.50;;
51814;SDS011;37874;53.158;6.766;2023-05-10T02:03:23;0.70;;;0.35;;
51814;SDS011;37874;53.158;6.766;2023-05-10T02:05:51;0.60;;;0.30;;
51814;SDS011;37874;53.158;6.766;2023-05-10T02:08:18;0.73;;;0.40;;
51814;SDS011;37874;53.158;6.766;2023-05-10T02:10:45;1.80;;;0.50;;
51814;SDS011;37874;53.158;6.766;2023-05-10T02:13:11;0.73;;;0.40;;
51814;SDS011;37874;53.158;6.766;2023-05-10T02:15:38;0.50;;;0.30;;
51814;SDS011;37874;53.158;6.766;2023-05-10T02:18:05;1.15;;;0.50;;
51814;SDS011;37874;53.158;6.766;2023-05-10T02:20:32;0.80;;;0.50;;
51814;SDS011;37874;53.158;6.766;2023-05-10T02:22:59;0.45;;;0.40;;
51814;SDS011;37874;53.158;6.766;2023-05-10T02:25:28;1.38;;;0.50;;
51814;SDS011;37874;53.158;6.766;2023-05-10T02:27:55;0.95;;;0.47;;
51814;SDS011;37874;53.158;6.766;2023-05-10T02:30:22;1.02;;;0.60;;
51814;SDS011;37874;53.158;6.766;2023-05-10T02:32:49;0.80;;;0.40;;
51814;SDS011;37874;53.158;6.766;2023-05-10T02:35:16;0.60;;;0.40;;
51814;SDS011;37874;53.158;6.766;2023-05-10T02:37:42;0.82;;;0.40;;
51814;SDS011;37874;53.158;6.766;2023-05-10T02:40:09;0.60;;;0.40;;
51814;SDS011;37874;53.158;6.766;2023-05-10T02:42:36;0.50;;;0.40;;
51814;SDS011;37874;53.158;6.766;2023-05-10T02:45:07;1.00;;;0.63;;
51814;SDS011;37874;53.158;6.766;2023-05-10T02:47:36;0.60;;;0.50;;
51814;SDS011;37874;53.158;6.766;2023-05-10T02:50:03;0.68;;;0.35;;
51814;SDS011;37874;53.158;6.766;2023-05-10T02:52:29;0.40;;;0.30;;
51814;SDS011;37874;53.158;6.766;2023-05-10T02:55:02;0.95;;;0.40;;
51814;SDS011;37874;53.158;6.766;2023-05-10T02:57:31;1.13;;;0.60;;
51814;SDS011;37874;53.158;6.766;2023-05-10T02:59:59;0.43;;;0.30;;
51814;SDS011;37874;53.158;6.766;2023-05-10T03:02:25;0.60;;;0.30;;
51814;SDS011;37874;53.158;6.766;2023-05-10T03:04:51;0.73;;;0.30;;
51814;SDS011;37874;53.158;6.766;2023-05-10T03:07:17;0.65;;;0.38;;
51814;SDS011;37874;53.158;6.766;2023-05-10T03:09:46;1.65;;;0.47;;
51814;SDS011;37874;53.158;6.766;2023-05-10T03:12:19;0.88;;;0.40;;
51814;SDS011;37874;53.158;6.766;2023-05-10T03:15:17;0.85;;;0.30;;
51814;SDS011;37874;53.158;6.766;2023-05-10T03:20:41;0.60;;;0.40;;
51814;SDS011;37874;53.158;6.766;2023-05-10T03:23:12;0.50;;;0.30;;
51814;SDS011;37874;53.158;6.766;2023-05-10T03:25:46;0.80;;;0.50;;
51814;SDS011;37874;53.158;6.766;2023-05-10T03:28:14;1.10;;;0.50;;
51814;SDS011;37874;53.158;6.766;2023-05-10T03:30:41;0.65;;;0.40;;
51814;SDS011;37874;53.158;6.766;2023-05-10T03:33:08;1.08;;;0.63;;
51814;SDS011;37874;53.158;6.766;2023-05-10T03:35:34;0.70;;;0.30;;
51814;SDS011;37874;53.158;6.766;2023-05-10T03:38:00;1.23;;;0.40;;
51814;SDS011;37874;53.158;6.766;2023-05-10T03:40:26;1.50;;;0.68;;
51814;SDS011;37874;53.158;6.766;2023-05-10T03:42:57;1.08;;;0.50;;
51814;SDS011;37874;53.158;6.766;2023-05-10T03:45:25;1.67;;;0.90;;
51814;SDS011;37874;53.158;6.766;2023-05-10T03:47:52;1.55;;;0.80;;
51814;SDS011;37874;53.158;6.766;2023-05-10T03:50:17;0.88;;;0.50;;
51814;SDS011;37874;53.158;6.766;2023-05-10T03:52:43;1.30;;;0.63;;
51814;SDS011;37874;53.158;6.766;2023-05-10T03:55:10;1.15;;;0.65;;
51814;SDS011;37874;53.158;6.766;2023-05-10T03:57:35;1.52;;;0.70;;
51814;SDS011;37874;53.158;6.766;2023-05-10T04:00:02;1.30;;;0.60;;
51814;SDS011;37874;53.158;6.766;2023-05-10T04:02:28;1.38;;;0.60;;
51814;SDS011;37874;53.158;6.766;2023-05-10T04:04:55;2.50;;;0.80;;
51814;SDS011;37874;53.158;6.766;2023-05-10T04:07:21;2.42;;;0.70;;
51814;SDS011;37874;53.158;6.766;2023-05-10T04:09:46;1.42;;;0.77;;
51814;SDS011;37874;53.158;6.766;2023-05-10T04:12:12;1.98;;;0.80;;
51814;SDS011;37874;53.158;6.766;2023-05-10T04:14:38;1.25;;;0.57;;
51814;SDS011;37874;53.158;6.766;2023-05-10T04:17:03;1.30;;;0.70;;
51814;SDS011;37874;53.158;6.766;2023-05-10T04:19:32;1.23;;;0.50;;
51814;SDS011;37874;53.158;6.766;2023-05-10T04:21:58;1.23;;;0.70;;
51814;SDS011;37874;53.158;6.766;2023-05-10T04:24:24;1.48;;;0.80;;
51814;SDS011;37874;53.158;6.766;2023-05-10T04:26:50;2.00;;;0.90;;
51814;SDS011;37874;53.158;6.766;2023-05-10T04:29:16;2.67;;;1.65;;
51814;SDS011;37874;53.158;6.766;2023-05-10T04:31:41;1.60;;;1.00;;
51814;SDS011;37874;53.158;6.766;2023-05-10T04:34:07;2.10;;;1.25;;
51814;SDS011;37874;53.158;6.766;2023-05-10T04:36:32;1.50;;;0.90;;
51814;SDS011;37874;53.158;6.766;2023-05-10T04:39:00;1.50;;;0.70;;
51814;SDS011;37874;53.158;6.766;2023-05-10T04:41:28;1.77;;;0.70;;
51814;SDS011;37874;53.158;6.766;2023-05-10T04:43:54;1.77;;;0.95;;
51814;SDS011;37874;53.158;6.766;2023-05-10T04:46:19;2.38;;;0.80;;
51814;SDS011;37874;53.158;6.766;2023-05-10T04:48:45;1.42;;;0.80;;
51814;SDS011;37874;53.158;6.766;2023-05-10T04:51:11;1.23;;;0.60;;
51814;SDS011;37874;53.158;6.766;2023-05-10T04:53:37;2.42;;;0.95;;
51814;SDS011;37874;53.158;6.766;2023-05-10T04:56:02;1.50;;;0.70;;
51814;SDS011;37874;53.158;6.766;2023-05-10T04:58:28;1.02;;;0.50;;
51814;SDS011;37874;53.158;6.766;2023-05-10T05:00:54;1.75;;;0.93;;
51814;SDS011;37874;53.158;6.766;2023-05-10T05:03:19;1.88;;;1.10;;
51814;SDS011;37874;53.158;6.766;2023-05-10T05:05:45;1.83;;;0.70;;
51814;SDS011;37874;53.158;6.766;2023-05-10T05:08:11;1.50;;;1.00;;
51814;SDS011;37874;53.158;6.766;2023-05-10T05:10:36;1.58;;;0.70;;
51814;SDS011;37874;53.158;6.766;2023-05-10T05:13:02;1.20;;;0.60;;
51814;SDS011;37874;53.158;6.766;2023-05-10T05:15:27;1.38;;;0.57;;
51814;SDS011;37874;53.158;6.766;2023-05-10T05:17:53;1.02;;;0.50;;
51814;SDS011;37874;53.158;6.766;2023-05-10T05:20:19;1.42;;;0.60;;
51814;SDS011;37874;53.158;6.766;2023-05-10T05:22:44;0.77;;;0.40;;
51814;SDS011;37874;53.158;6.766;2023-05-10T05:25:10;0.90;;;0.40;;
51814;SDS011;37874;53.158;6.766;2023-05-10T05:27:36;1.20;;;0.40;;
51814;SDS011;37874;53.158;6.766;2023-05-10T05:30:02;0.57;;;0.30;;
51814;SDS011;37874;53.158;6.766;2023-05-10T05:32:29;0.40;;;0.20;;
51814;SDS011;37874;53.158;6.766;2023-05-10T05:34:54;0.57;;;0.30;;
51814;SDS011;37874;53.158;6.766;2023-05-10T05:37:20;0.70;;;0.30;;
51814;SDS011;37874;53.158;6.766;2023-05-10T05:39:46;0.50;;;0.22;;
51814;SDS011;37874;53.158;6.766;2023-05-10T05:42:12;0.88;;;0.20;;
51814;SDS011;37874;53.158;6.766;2023-05-10T05:44:38;0.38;;;0.20;;
51814;SDS011;37874;53.158;6.766;2023-05-10T05:47:04;0.30;;;0.20;;
51814;SDS011;37874;53.158;6.766;2023-05-10T05:49:31;0.50;;;0.20;;
51814;SDS011;37874;53.158;6.766;2023-05-10T05:52:00;0.43;;;0.17;;
51814;SDS011;37874;53.158;6.766;2023-05-10T05:54:27;0.75;;;0.30;;
51814;SDS011;37874;53.158;6.766;2023-05-10T05:56:54;0.47;;;0.20;;
51814;SDS011;37874;53.158;6.766;2023-05-10T05:59:20;0.32;;;0.20;;
51814;SDS011;37874;53.158;6.766;2023-05-10T06:01:46;0.30;;;0.15;;
51814;SDS011;37874;53.158;6.766;2023-05-10T06:04:12;0.45;;;0.20;;
51814;SDS011;37874;53.158;6.766;2023-05-10T06:06:38;0.40;;;0.20;;
51814;SDS011;37874;53.158;6.766;2023-05-10T06:09:03;0.20;;;0.13;;
51814;SDS011;37874;53.158;6.766;2023-05-10T06:11:29;0.30;;;0.20;;
51814;SDS011;37874;53.158;6.766;2023-05-10T06:13:57;0.70;;;0.20;;
51814;SDS011;37874;53.158;6.766;2023-05-10T06:16:23;1.77;;;0.20;;
51814;SDS011;37874;53.158;6.766;2023-05-10T06:18:48;0.20;;;0.10;;
51814;SDS011;37874;53.158;6.766;2023-05-10T06:21:14;1.08;;;0.20;;
51814;SDS011;37874;53.158;6.766;2023-05-10T06:23:41;0.55;;;0.20;;
51814;SDS011;37874;53.158;6.766;2023-05-10T06:26:06;0.93;;;0.30;;
51814;SDS011;37874;53.158;6.766;2023-05-10T06:28:32;0.32;;;0.20;;
51814;SDS011;37874;53.158;6.766;2023-05-10T06:30:58;0.55;;;0.28;;
51814;SDS011;37874;53.158;6.766;2023-05-10T06:33:24;0.40;;;0.10;;
51814;SDS011;37874;53.158;6.766;2023-05-10T06:35:50;0.63;;;0.30;;
51814;SDS011;37874;53.158;6.766;2023-05-10T06:38:15;0.35;;;0.20;;
51814;SDS011;37874;53.158;6.766;2023-05-10T06:40:41;0.50;;;0.20;;
51814;SDS011;37874;53.158;6.766;2023-05-10T06:43:07;0.35;;;0.10;;
51814;SDS011;37874;53.158;6.766;2023-05-10T06:45:32;0.38;;;0.20;;
51814;SDS011;37874;53.158;6.766;2023-05-10T06:47:58;0.60;;;0.20;;
51814;SDS011;37874;53.158;6.766;2023-05-10T06:50:24;0.28;;;0.10;;
51814;SDS011;37874;53.158;6.766;2023-05-10T06:52:50;0.45;;;0.20;;
51814;SDS011;37874;53.158;6.766;2023-05-10T06:55:15;0.30;;;0.20;;
51814;SDS011;37874;53.158;6.766;2023-05-10T06:57:41;0.65;;;0.20;;
51814;SDS011;37874;53.158;6.766;2023-05-10T07:00:07;0.20;;;0.10;;
51814;SDS011;37874;53.158;6.766;2023-05-10T07:02:34;0.10;;;0.10;;
51814;SDS011;37874;53.158;6.766;2023-05-10T07:05:00;0.93;;;0.17;;
51814;SDS011;37874;53.158;6.766;2023-05-10T07:07:27;0.52;;;0.20;;
51814;SDS011;37874;53.158;6.766;2023-05-10T07:09:52;0.40;;;0.25;;
51814;SDS011;37874;53.158;6.766;2023-05-10T07:12:18;1.60;;;0.20;;
51814;SDS011;37874;53.158;6.766;2023-05-10T07:14:44;0.38;;;0.20;;
51814;SDS011;37874;53.158;6.766;2023-05-10T07:17:10;0.28;;;0.10;;
51814;SDS011;37874;53.158;6.766;2023-05-10T07:19:35;1.10;;;0.30;;
51814;SDS011;37874;53.158;6.766;2023-05-10T07:22:01;0.30;;;0.10;;
51814;SDS011;37874;53.158;6.766;2023-05-10T07:24:27;0.50;;;0.28;;
51814;SDS011;37874;53.158;6.766;2023-05-10T07:26:52;1.00;;;0.30;;
51814;SDS011;37874;53.158;6.766;2023-05-10T07:29:18;0.68;;;0.20;;
51814;SDS011;37874;53.158;6.766;2023-05-10T07:31:43;1.42;;;0.30;;
51814;SDS011;37874;53.158;6.766;2023-05-10T07:34:09;0.50;;;0.20;;
51814;SDS011;37874;53.158;6.766;2023-05-10T07:36:35;0.60;;;0.30;;
51814;SDS011;37874;53.158;6.766;2023-05-10T07:39:00;0.85;;;0.30;;
51814;SDS011;37874;53.158;6.766;2023-05-10T07:41:26;1.45;;;0.30;;
51814;SDS011;37874;53.158;6.766;2023-05-10T07:43:52;0.40;;;0.20;;
51814;SDS011;37874;53.158;6.766;2023-05-10T07:46:17;0.55;;;0.22;;
51814;SDS011;37874;53.158;6.766;2023-05-10T07:48:44;0.45;;;0.20;;
51814;SDS011;37874;53.158;6.766;2023-05-10T07:51:10;1.05;;;0.30;;
51814;SDS011;37874;53.158;6.766;2023-05-10T07:53:36;2.22;;;0.28;;
51814;SDS011;37874;53.158;6.766;2023-05-10T07:56:19;1.83;;;0.30;;
51814;SDS011;37874;53.158;6.766;2023-05-10T07:58:50;0.57;;;0.20;;
51814;SDS011;37874;53.158;6.766;2023-05-10T08:01:16;2.13;;;0.40;;
51814;SDS011;37874;53.158;6.766;2023-05-10T08:03:42;0.60;;;0.30;;
51814;SDS011;37874;53.158;6.766;2023-05-10T08:06:08;1.05;;;0.38;;
51814;SDS011;37874;53.158;6.766;2023-05-10T08:08:33;1.02;;;0.35;;
51814;SDS011;37874;53.158;6.766;2023-05-10T08:10:59;1.13;;;0.50;;
51814;SDS011;37874;53.158;6.766;2023-05-10T08:13:25;2.58;;;1.00;;
51814;SDS011;37874;53.158;6.766;2023-05-10T08:15:50;2.83;;;1.08;;
51814;SDS011;37874;53.158;6.766;2023-05-10T08:18:18;2.80;;;1.20;;
51814;SDS011;37874;53.158;6.766;2023-05-10T08:20:44;3.60;;;1.40;;
51814;SDS011;37874;53.158;6.766;2023-05-10T08:23:09;3.45;;;1.50;;
51814;SDS011;37874;53.158;6.766;2023-05-10T08:25:37;3.58;;;1.50;;
51814;SDS011;37874;53.158;6.766;2023-05-10T08:28:02;4.47;;;1.67;;
51814;SDS011;37874;53.158;6.766;2023-05-10T08:30:28;4.38;;;1.85;;
51814;SDS011;37874;53.158;6.766;2023-05-10T08:32:53;4.50;;;1.75;;
51814;SDS011;37874;53.158;6.766;2023-05-10T08:35:19;3.95;;;1.80;;
51814;SDS011;37874;53.158;6.766;2023-05-10T08:37:45;3.83;;;1.67;;
51814;SDS011;37874;53.158;6.766;2023-05-10T08:40:11;4.82;;;1.75;;
51814;SDS011;37874;53.158;6.766;2023-05-10T08:42:38;4.15;;;1.95;;
51814;SDS011;37874;53.158;6.766;2023-05-10T08:45:07;3.58;;;1.63;;
51814;SDS011;37874;53.158;6.766;2023-05-10T08:47:34;6.05;;;1.95;;
51814;SDS011;37874;53.158;6.766;2023-05-10T08:50:02;3.45;;;1.75;;
51814;SDS011;37874;53.158;6.766;2023-05-10T08:52:28;3.80;;;1.70;;
51814;SDS011;37874;53.158;6.766;2023-05-10T08:54:57;4.63;;;1.45;;
51814;SDS011;37874;53.158;6.766;2023-05-10T08:57:23;3.58;;;1.73;;
51814;SDS011;37874;53.158;6.766;2023-05-10T08:59:49;3.78;;;1.80;;
51814;SDS011;37874;53.158;6.766;2023-05-10T09:02:15;4.60;;;2.00;;
51814;SDS011;37874;53.158;6.766;2023-05-10T09:04:43;5.57;;;1.88;;
51814;SDS011;37874;53.158;6.766;2023-05-10T09:07:08;3.95;;;1.95;;
51814;SDS011;37874;53.158;6.766;2023-05-10T09:09:36;4.88;;;1.80;;
51814;SDS011;37874;53.158;6.766;2023-05-10T09:12:02;4.15;;;1.75;;
51814;SDS011;37874;53.158;6.766;2023-05-10T09:14:27;4.50;;;1.80;;
51814;SDS011;37874;53.158;6.766;2023-05-10T09:16:54;4.10;;;1.83;;
51814;SDS011;37874;53.158;6.766;2023-05-10T09:19:20;3.53;;;1.70;;
51814;SDS011;37874;53.158;6.766;2023-05-10T09:21:46;4.07;;;2.00;;
51814;SDS011;37874;53.158;6.766;2023-05-10T09:24:11;5.30;;;1.45;;
51814;SDS011;37874;53.158;6.766;2023-05-10T09:26:45;4.25;;;1.52;;
51814;SDS011;37874;53.158;6.766;2023-05-10T09:29:14;3.65;;;1.50;;
51814;SDS011;37874;53.158;6.766;2023-05-10T09:31:58;3.38;;;1.27;;
51814;SDS011;37874;53.158;6.766;2023-05-10T09:34:30;4.32;;;1.63;;
51814;SDS011;37874;53.158;6.766;2023-05-10T09:37:00;4.43;;;1.30;;
51814;SDS011;37874;53.158;6.766;2023-05-10T09:39:31;3.63;;;1.30;;
51814;SDS011;37874;53.158;6.766;2023-05-10T09:42:04;3.80;;;1.25;;
51814;SDS011;37874;53.158;6.766;2023-05-10T09:44:34;3.15;;;1.40;;
51814;SDS011;37874;53.158;6.766;2023-05-10T09:47:00;3.40;;;1.48;;
51814;SDS011;37874;53.158;6.766;2023-05-10T09:49:27;2.78;;;1.00;;
51814;SDS011;37874;53.158;6.766;2023-05-10T09:52:06;3.67;;;1.20;;
51814;SDS011;37874;53.158;6.766;2023-05-10T09:54:33;2.95;;;1.00;;
51814;SDS011;37874;53.158;6.766;2023-05-10T09:56:59;2.92;;;0.90;;
51814;SDS011;37874;53.158;6.766;2023-05-10T09:59:26;2.42;;;1.08;;
51814;SDS011;37874;53.158;6.766;2023-05-10T10:01:53;2.85;;;1.30;;
51814;SDS011;37874;53.158;6.766;2023-05-10T10:04:22;2.45;;;0.90;;
51814;SDS011;37874;53.158;6.766;2023-05-10T10:06:58;2.65;;;1.05;;
51814;SDS011;37874;53.158;6.766;2023-05-10T10:09:25;2.55;;;1.20;;
51814;SDS011;37874;53.158;6.766;2023-05-10T10:11:51;3.40;;;1.17;;
51814;SDS011;37874;53.158;6.766;2023-05-10T10:14:21;2.67;;;0.93;;
51814;SDS011;37874;53.158;6.766;2023-05-10T10:16:49;2.53;;;0.95;;
51814;SDS011;37874;53.158;6.766;2023-05-10T10:19:15;2.13;;;0.75;;
51814;SDS011;37874;53.158;6.766;2023-05-10T10:21:41;2.83;;;1.00;;
51814;SDS011;37874;53.158;6.766;2023-05-10T10:24:07;2.03;;;0.82;;
51814;SDS011;37874;53.158;6.766;2023-05-10T10:26:33;2.17;;;0.90;;
51814;SDS011;37874;53.158;6.766;2023-05-10T10:31:56;3.15;;;0.90;;
51814;SDS011;37874;53.158;6.766;2023-05-10T10:34:31;7.72;;;1.30;;
51814;SDS011;37874;53.158;6.766;2023-05-10T10:36:57;6.55;;;1.20;;
51814;SDS011;37874;53.158;6.766;2023-05-10T10:39:28;4.47;;;1.00;;
51814;SDS011;37874;53.158;6.766;2023-05-10T10:41:55;2.47;;;0.88;;
51814;SDS011;37874;53.158;6.766;2023-05-10T10:49:48;2.42;;;1.10;;
51814;SDS011;37874;53.158;6.766;2023-05-10T10:57:31;3.90;;;0.80;;
51814;SDS011;37874;53.158;6.766;2023-05-10T11:08:16;2.78;;;1.05;;
51814;SDS011;37874;53.158;6.766;2023-05-10T11:13:33;8.07;;;2.00;;
51814;SDS011;37874;53.158;6.766;2023-05-10T11:16:22;3.83;;;1.00;;
51814;SDS011;37874;53.158;6.766;2023-05-10T11:19:05;2.40;;;0.93;;
51814;SDS011;37874;53.158;6.766;2023-05-10T11:21:33;3.77;;;0.80;;
51814;SDS011;37874;53.158;6.766;2023-05-10T11:24:12;1.95;;;0.80;;
51814;SDS011;37874;53.158;6.766;2023-05-10T11:26:40;2.60;;;0.93;;
51814;SDS011;37874;53.158;6.766;2023-05-10T11:29:05;1.50;;;0.70;;
51814;SDS011;37874;53.158;6.766;2023-05-10T11:31:31;1.52;;;0.90;;
51814;SDS011;37874;53.158;6.766;2023-05-10T11:33:58;2.72;;;1.08;;
51814;SDS011;37874;53.158;6.766;2023-05-10T13:34:34;2.95;;;1.02;;
51814;SDS011;37874;53.158;6.766;2023-05-10T13:37:00;1.90;;;1.05;;
51814;SDS011;37874;53.158;6.766;2023-05-10T13:39:26;2.13;;;1.10;;
51814;SDS011;37874;53.158;6.766;2023-05-10T13:41:52;2.13;;;1.00;;
51814;SDS011;37874;53.158;6.766;2023-05-10T13:44:18;2.78;;;1.15;;
51814;SDS011;37874;53.158;6.766;2023-05-10T13:46:45;2.60;;;1.00;;
51814;SDS011;37874;53.158;6.766;2023-05-10T13:49:11;2.67;;;1.17;;
51814;SDS011;37874;53.158;6.766;2023-05-10T13:51:37;3.00;;;1.02;;
51814;SDS011;37874;53.158;6.766;2023-05-10T13:54:02;2.05;;;1.02;;
51814;SDS011;37874;53.158;6.766;2023-05-10T13:56:28;2.28;;;0.95;;
51814;SDS011;37874;53.158;6.766;2023-05-10T13:58:54;1.85;;;0.80;;
51814;SDS011;37874;53.158;6.766;2023-05-10T14:01:21;1.95;;;1.15;;
51814;SDS011;37874;53.158;6.766;2023-05-10T14:03:47;2.58;;;1.30;;
51814;SDS011;37874;53.158;6.766;2023-05-10T14:06:13;1.92;;;1.10;;
51814;SDS011;37874;53.158;6.766;2023-05-10T14:08:39;1.88;;;0.90;;
51814;SDS011;37874;53.158;6.766;2023-05-10T14:11:05;2.35;;;0.98;;
51814;SDS011;37874;53.158;6.766;2023-05-10T14:13:30;1.95;;;1.00;;
51814;SDS011;37874;53.158;6.766;2023-05-10T14:15:56;2.17;;;1.10;;
51814;SDS011;37874;53.158;6.766;2023-05-10T14:18:21;2.22;;;1.20;;
51814;SDS011;37874;53.158;6.766;2023-05-10T14:20:47;1.70;;;1.10;;
51814;SDS011;37874;53.158;6.766;2023-05-10T14:23:13;1.65;;;0.90;;
51814;SDS011;37874;53.158;6.766;2023-05-10T14:25:41;2.20;;;1.10;;
51814;SDS011;37874;53.158;6.766;2023-05-10T14:28:07;1.95;;;1.08;;
51814;SDS011;37874;53.158;6.766;2023-05-10T14:30:33;1.80;;;1.10;;
51814;SDS011;37874;53.158;6.766;2023-05-10T14:33:02;1.73;;;0.90;;
51814;SDS011;37874;53.158;6.766;2023-05-10T14:35:27;1.30;;;0.75;;
51814;SDS011;37874;53.158;6.766;2023-05-10T14:37:55;2.42;;;1.20;;
51814;SDS011;37874;53.158;6.766;2023-05-10T14:40:21;2.65;;;1.13;;
51814;SDS011;37874;53.158;6.766;2023-05-10T14:42:47;1.75;;;1.08;;
51814;SDS011;37874;53.158;6.766;2023-05-10T14:45:13;2.30;;;1.20;;
51814;SDS011;37874;53.158;6.766;2023-05-10T14:47:39;1.95;;;1.17;;
51814;SDS011;37874;53.158;6.766;2023-05-10T14:50:05;2.17;;;1.30;;
51814;SDS011;37874;53.158;6.766;2023-05-10T14:52:30;2.75;;;1.20;;
51814;SDS011;37874;53.158;6.766;2023-05-10T16:52:44;2.35;;;1.00;;
51814;SDS011;37874;53.158;6.766;2023-05-10T16:55:10;2.00;;;1.30;;
51814;SDS011;37874;53.158;6.766;2023-05-10T16:57:35;1.70;;;1.00;;
51814;SDS011;37874;53.158;6.766;2023-05-10T17:00:01;1.35;;;0.88;;
51814;SDS011;37874;53.158;6.766;2023-05-10T17:02:28;1.90;;;1.00;;
51814;SDS011;37874;53.158;6.766;2023-05-10T17:04:53;1.50;;;0.90;;
51814;SDS011;37874;53.158;6.766;2023-05-10T17:07:20;2.10;;;1.00;;
51814;SDS011;37874;53.158;6.766;2023-05-10T17:09:46;1.77;;;0.90;;
51814;SDS011;37874;53.158;6.766;2023-05-10T17:12:11;1.75;;;0.95;;
51814;SDS011;37874;53.158;6.766;2023-05-10T17:14:37;1.48;;;0.80;;
51814;SDS011;37874;53.158;6.766;2023-05-10T17:17:03;1.52;;;0.90;;
51814;SDS011;37874;53.158;6.766;2023-05-10T17:19:28;2.05;;;0.95;;
51814;SDS011;37874;53.158;6.766;2023-05-10T17:21:54;1.35;;;0.88;;
51814;SDS011;37874;53.158;6.766;2023-05-10T17:24:20;1.63;;;1.05;;
51814;SDS011;37874;53.158;6.766;2023-05-10T17:26:45;1.02;;;0.70;;
51814;SDS011;37874;53.158;6.766;2023-05-10T17:29:11;1.60;;;0.85;;
51814;SDS011;37874;53.158;6.766;2023-05-10T17:31:38;1.50;;;0.80;;
51814;SDS011;37874;53.158;6.766;2023-05-10T17:34:04;1.48;;;0.82;;
51814;SDS011;37874;53.158;6.766;2023-05-10T17:36:30;1.77;;;1.00;;
51814;SDS011;37874;53.158;6.766;2023-05-10T17:38:56;1.83;;;1.00;;
51814;SDS011;37874;53.158;6.766;2023-05-10T17:41:22;1.70;;;0.90;;
51814;SDS011;37874;53.158;6.766;2023-05-10T17:43:48;1.55;;;0.90;;
51814;SDS011;37874;53.158;6.766;2023-05-10T19:46:47;8.55;;;1.00;;
51814;SDS011;37874;53.158;6.766;2023-05-10T19:49:12;1.48;;;0.80;;
51814;SDS011;37874;53.158;6.766;2023-05-10T19:51:38;1.80;;;0.80;;
51814;SDS011;37874;53.158;6.766;2023-05-10T19:54:04;1.60;;;0.85;;
51814;SDS011;37874;53.158;6.766;2023-05-10T19:56:29;1.25;;;0.80;;
51814;SDS011;37874;53.158;6.766;2023-05-10T19:58:55;2.42;;;0.82;;
51814;SDS011;37874;53.158;6.766;2023-05-10T20:01:20;1.63;;;0.90;;
51814;SDS011;37874;53.158;6.766;2023-05-10T20:03:46;1.98;;;0.80;;
51814;SDS011;37874;53.158;6.766;2023-05-10T20:06:12;1.77;;;0.93;;
51814;SDS011;37874;53.158;6.766;2023-05-10T20:08:38;1.45;;;0.98;;
51814;SDS011;37874;53.158;6.766;2023-05-10T20:11:03;1.50;;;0.90;;
51814;SDS011;37874;53.158;6.766;2023-05-10T20:13:29;1.40;;;0.90;;
51814;SDS011;37874;53.158;6.766;2023-05-10T20:15:57;2.10;;;1.20;;
51814;SDS011;37874;53.158;6.766;2023-05-10T20:18:24;1.98;;;1.00;;
51814;SDS011;37874;53.158;6.766;2023-05-10T20:20:53;1.67;;;0.90;;
51814;SDS011;37874;53.158;6.766;2023-05-10T20:23:20;1.48;;;0.90;;
51814;SDS011;37874;53.158;6.766;2023-05-10T20:25:46;1.92;;;0.90;;
51814;SDS011;37874;53.158;6.766;2023-05-10T20:28:11;2.03;;;0.68;;
51814;SDS011;37874;53.158;6.766;2023-05-10T20:30:37;1.95;;;0.98;;
51814;SDS011;37874;53.158;6.766;2023-05-10T20:33:03;1.98;;;0.80;;
51814;SDS011;37874;53.158;6.766;2023-05-10T20:35:29;1.23;;;0.77;;
51814;SDS011;37874;53.158;6.766;2023-05-10T20:37:56;1.20;;;0.77;;
51814;SDS011;37874;53.158;6.766;2023-05-10T20:40:21;1.45;;;0.90;;
51814;SDS011;37874;53.158;6.766;2023-05-10T20:42:47;1.20;;;0.80;;
51814;SDS011;37874;53.158;6.766;2023-05-10T20:45:14;1.75;;;0.75;;
51814;SDS011;37874;53.158;6.766;2023-05-10T20:47:39;1.38;;;0.77;;
51814;SDS011;37874;53.158;6.766;2023-05-10T20:50:05;1.40;;;0.90;;
51814;SDS011;37874;53.158;6.766;2023-05-10T20:52:31;1.75;;;1.00;;
51814;SDS011;37874;53.158;6.766;2023-05-10T20:54:57;1.67;;;1.00;;
51814;SDS011;37874;53.158;6.766;2023-05-10T20:57:22;1.13;;;0.70;;
51814;SDS011;37874;53.158;6.766;2023-05-10T20:59:48;1.90;;;0.90;;
51814;SDS011;37874;53.158;6.766;2023-05-10T21:02:14;1.52;;;0.73;;
51814;SDS011;37874;53.158;6.766;2023-05-10T21:04:40;1.02;;;0.68;;
51814;SDS011;37874;53.158;6.766;2023-05-10T21:07:06;1.73;;;0.98;;
51814;SDS011;37874;53.158;6.766;2023-05-10T21:09:32;1.92;;;0.80;;
51814;SDS011;37874;53.158;6.766;2023-05-10T21:11:59;1.17;;;0.82;;
51814;SDS011;37874;53.158;6.766;2023-05-10T21:14:27;1.52;;;0.77;;
51814;SDS011;37874;53.158;6.766;2023-05-10T21:16:53;1.50;;;0.73;;
51814;SDS011;37874;53.158;6.766;2023-05-10T21:19:18;1.48;;;0.80;;
51814;SDS011;37874;53.158;6.766;2023-05-10T21:21:44;1.38;;;0.70;;
51814;SDS011;37874;53.158;6.766;2023-05-10T21:24:10;1.10;;;0.70;;
51814;SDS011;37874;53.158;6.766;2023-05-10T21:26:36;1.00;;;0.70;;
51814;SDS011;37874;53.158;6.766;2023-05-10T21:29:02;0.98;;;0.60;;
51814;SDS011;37874;53.158;6.766;2023-05-10T21:31:29;1.10;;;0.60;;
51814;SDS011;37874;53.158;6.766;2023-05-10T21:33:55;1.63;;;0.80;;
51814;SDS011;37874;53.158;6.766;2023-05-10T21:36:21;1.67;;;1.10;;
51814;SDS011;37874;53.158;6.766;2023-05-10T21:38:47;1.15;;;0.70;;
51814;SDS011;37874;53.158;6.766;2023-05-10T21:41:14;1.20;;;0.73;;
51814;SDS011;37874;53.158;6.766;2023-05-10T21:43:40;1.10;;;0.70;;
51814;SDS011;37874;53.158;6.766;2023-05-10T21:46:06;1.85;;;0.60;;
51814;SDS011;37874;53.158;6.766;2023-05-10T21:48:33;1.40;;;0.80;;
51814;SDS011;37874;53.158;6.766;2023-05-10T21:50:59;1.63;;;0.90;;
51814;SDS011;37874;53.158;6.766;2023-05-10T21:53:25;1.58;;;0.70;;
51814;SDS011;37874;53.158;6.766;2023-05-10T21:55:52;1.30;;;0.70;;
51814;SDS011;37874;53.158;6.766;2023-05-10T21:58:20;1.00;;;0.68;;
51814;SDS011;37874;53.158;6.766;2023-05-10T22:00:46;1.00;;;0.60;;
51814;SDS011;37874;53.158;6.766;2023-05-10T22:03:11;1.08;;;0.60;;
51814;SDS011;37874;53.158;6.766;2023-05-10T22:05:37;1.20;;;0.70;;
51814;SDS011;37874;53.158;6.766;2023-05-10T22:08:03;1.75;;;0.82;;
51814;SDS011;37874;53.158;6.766;2023-05-10T22:10:29;2.55;;;0.70;;
51814;SDS011;37874;53.158;6.766;2023-05-10T22:12:55;1.40;;;0.80;;
51814;SDS011;37874;53.158;6.766;2023-05-10T22:15:21;1.30;;;0.70;;
51814;SDS011;37874;53.158;6.766;2023-05-10T22:17:46;1.25;;;0.70;;
51814;SDS011;37874;53.158;6.766;2023-05-10T22:20:12;1.05;;;0.70;;
51814;SDS011;37874;53.158;6.766;2023-05-10T22:22:38;1.50;;;0.77;;
51814;SDS011;37874;53.158;6.766;2023-05-10T22:25:06;1.25;;;0.80;;
51814;SDS011;37874;53.158;6.766;2023-05-10T22:27:32;1.27;;;0.80;;
51814;SDS011;37874;53.158;6.766;2023-05-10T22:29:58;1.52;;;0.70;;
51814;SDS011;37874;53.158;6.766;2023-05-10T22:32:23;1.60;;;0.80;;
51814;SDS011;37874;53.158;6.766;2023-05-10T22:34:49;1.40;;;0.85;;
51814;SDS011;37874;53.158;6.766;2023-05-10T22:37:15;2.75;;;0.93;;
51814;SDS011;37874;53.158;6.766;2023-05-10T22:39:42;1.17;;;0.70;;
51814;SDS011;37874;53.158;6.766;2023-05-10T22:42:09;1.23;;;0.60;;
51814;SDS011;37874;53.158;6.766;2023-05-10T22:44:34;1.13;;;0.70;;